Time;durP1;ratioP1;P1;durP2;ratioP2;P2;SDS_P1;SDS_P2;PMS_P1;PMS_P2;Temp;Humidity;BMP_temperature;BMP_pressure;BME280_temperature;BME280_humidity;BME280_pressure;Samples;Min_cycle;Max_cycle;Signal;HPM_P1;HPM_P2
2022/06/24 00:00:12;;;;;;;8.88;5.00;;;;;;;31.05;36.26;100163.34;5048434;28;20053;-75
2022/06/24 00:02:41;;;;;;;7.50;5.32;;;;;;;30.96;36.38;100166.56;5047827;28;20123;-75
2022/06/24 00:05:11;;;;;;;8.05;4.72;;;;;;;30.88;36.83;100189.41;5049444;28;20064;-75
2022/06/24 00:07:46;;;;;;;8.85;5.15;;;;;;;30.89;38.11;100207.03;5047448;28;20500;-75
2022/06/24 00:10:14;;;;;;;7.32;5.00;;;;;;;30.82;37.45;100220.34;5022365;28;20049;-75
2022/06/24 00:12:43;;;;;;;7.60;5.10;;;;;;;30.76;37.68;100216.63;5038048;28;20049;-75
2022/06/24 00:15:10;;;;;;;7.78;4.68;;;;;;;30.73;37.10;100213.44;5048828;28;20081;-76
2022/06/24 00:17:37;;;;;;;6.97;4.63;;;;;;;30.70;37.28;100231.63;5048302;28;20049;-76
2022/06/24 00:20:06;;;;;;;7.75;4.85;;;;;;;30.71;37.68;100216.53;5049130;28;20080;-76
2022/06/24 00:22:42;;;;;;;8.30;4.32;;;;;;;30.70;38.67;100212.03;5047672;28;20132;-76
2022/06/24 00:25:17;;;;;;;7.47;4.63;;;;;;;30.68;38.57;100218.97;5048863;28;20098;-76
2022/06/24 00:28:10;;;;;;;7.13;4.10;;;;;;;30.62;38.53;100246.03;5007371;28;20082;-76
2022/06/24 00:30:54;;;;;;;7.13;3.97;;;;;;;30.60;38.54;100267.84;5009400;28;20045;-76
2022/06/24 00:33:33;;;;;;;6.10;4.18;;;;;;;30.59;38.44;100280.16;5027665;28;20049;-76
2022/06/24 00:36:00;;;;;;;7.07;4.47;;;;;;;30.53;37.83;100301.63;5028791;28;20080;-76
2022/06/24 00:38:35;;;;;;;7.18;4.15;;;;;;;30.50;38.46;100318.88;5027390;28;20504;-76
2022/06/24 00:41:10;;;;;;;8.07;4.30;;;;;;;30.41;38.06;100345.56;5029737;28;20049;-76
2022/06/24 00:43:45;;;;;;;5.80;3.92;;;;;;;30.38;38.96;100336.81;5023016;28;20104;-76
2022/06/24 00:46:14;;;;;;;6.93;3.90;;;;;;;30.30;38.54;100354.00;5027056;28;20508;-76
2022/06/24 00:48:47;;;;;;;6.53;3.47;;;;;;;30.25;39.09;100344.34;5015927;28;20037;-77
2022/06/24 00:51:15;;;;;;;6.68;3.47;;;;;;;30.17;38.28;100330.72;5012621;28;20079;-85
2022/06/24 00:53:46;;;;;;;6.35;3.63;;;;;;;30.16;38.71;100326.22;5040239;28;20091;-78
2022/06/24 00:56:16;;;;;;;7.05;3.85;;;;;;;30.10;38.40;100313.19;5031171;28;20049;-75
2022/06/24 00:59:00;;;;;;;6.80;3.58;;;;;;;30.09;38.43;100300.28;5035074;28;20532;-74
2022/06/24 01:01:35;;;;;;;6.38;3.47;;;;;;;30.06;38.92;100303.56;5029480;28;20061;-72
2022/06/24 01:04:04;;;;;;;5.63;3.05;;;;;;;30.01;38.48;100308.19;5012251;28;20057;-71
2022/06/24 01:06:31;;;;;;;5.25;3.13;;;;;;;29.98;38.50;100303.09;5038393;28;20484;-72
2022/06/24 01:08:58;;;;;;;7.68;3.95;;;;;;;29.95;38.97;100307.22;5045731;28;20045;-73
2022/06/24 01:11:30;;;;;;;7.32;3.33;;;;;;;29.96;39.35;100303.34;5047104;28;20052;-74
2022/06/24 01:13:57;;;;;;;6.55;3.47;;;;;;;29.91;38.95;100308.75;5032293;28;20132;-74
2022/06/24 01:16:25;;;;;;;5.90;3.15;;;;;;;29.89;39.18;100297.84;5030326;28;20144;-75
2022/06/24 01:18:53;;;;;;;5.57;3.38;;;;;;;29.87;39.07;100296.34;5027381;28;20475;-76
2022/06/24 01:21:41;;;;;;;6.22;3.17;;;;;;;29.84;39.62;100289.28;5030311;28;20081;-77
2022/06/24 01:24:24;;;;;;;5.53;3.15;;;;;;;29.84;39.24;100294.03;5042042;28;20049;-77
2022/06/24 01:26:56;;;;;;;5.43;3.17;;;;;;;29.83;39.66;100293.19;5046561;28;20064;-78
2022/06/24 01:29:24;;;;;;;5.03;2.85;;;;;;;29.78;39.59;100297.81;5031243;28;20069;-77
2022/06/24 01:31:53;;;;;;;5.90;3.40;;;;;;;29.79;39.72;100282.72;5054052;28;20084;-77
2022/06/24 01:34:21;;;;;;;6.55;2.92;;;;;;;29.77;39.85;100266.16;5016047;28;20057;-77
2022/06/24 01:36:48;;;;;;;5.80;3.10;;;;;;;29.76;39.78;100261.66;5032982;28;20057;-77
2022/06/24 01:39:15;;;;;;;4.70;3.40;;;;;;;29.75;40.06;100271.16;5029520;28;20400;-77
2022/06/24 01:41:41;;;;;;;6.30;3.47;;;;;;;29.74;40.33;100279.78;5031672;28;20125;-77
2022/06/24 01:44:08;;;;;;;5.47;3.00;;;;;;;29.73;40.75;100278.09;5047198;28;20060;-77
2022/06/24 01:46:35;;;;;;;7.80;3.45;;;;;;;29.72;40.77;100268.00;5052082;28;20450;-77
2022/06/24 01:49:03;;;;;;;7.50;3.40;;;;;;;29.71;40.74;100260.69;5035125;28;20049;-77
2022/06/24 01:51:31;;;;;;;6.57;3.50;;;;;;;29.69;40.88;100294.50;5031848;28;20053;-77
2022/06/24 01:53:58;;;;;;;6.40;3.20;;;;;;;29.66;41.24;100292.19;5010061;28;20054;-77
2022/06/24 01:56:25;;;;;;;6.60;3.47;;;;;;;29.66;41.21;100299.72;5020274;28;20566;-77
2022/06/24 01:58:51;;;;;;;6.05;3.28;;;;;;;29.65;40.97;100295.25;5033942;28;20072;-77
2022/06/24 02:01:18;;;;;;;6.10;3.28;;;;;;;29.64;41.03;100301.94;5011855;28;20049;-77
2022/06/24 02:03:44;;;;;;;5.43;2.95;;;;;;;29.63;41.45;100315.06;5031934;28;20049;-78
2022/06/24 02:06:13;;;;;;;6.50;3.38;;;;;;;29.63;41.33;100306.66;5033113;28;20140;-77
2022/06/24 02:08:40;;;;;;;5.55;3.50;;;;;;;29.62;41.57;100306.91;5030560;28;20415;-77
2022/06/24 02:14:03;;;;;;;6.43;3.50;;;;;;;29.61;41.60;100324.78;5017041;28;20045;-78
2022/06/24 02:16:31;;;;;;;5.78;3.08;;;;;;;29.59;41.13;100310.16;5030531;28;20087;-78
2022/06/24 02:18:58;;;;;;;6.30;3.03;;;;;;;29.57;41.24;100312.38;5029791;28;20041;-78
2022/06/24 02:21:26;;;;;;;4.93;2.67;;;;;;;29.56;41.07;100305.94;5030730;28;20049;-78
2022/06/24 02:23:53;;;;;;;4.55;2.72;;;;;;;29.56;40.35;100300.34;5013013;28;20049;-78
2022/06/24 02:26:21;;;;;;;4.45;2.38;;;;;;;29.54;40.95;100284.88;5030401;28;20141;-78
2022/06/24 02:28:47;;;;;;;5.40;2.33;;;;;;;29.52;40.58;100276.72;5030166;28;20077;-78
2022/06/24 02:31:14;;;;;;;4.72;2.38;;;;;;;29.50;40.64;100288.13;5011278;28;20196;-77
2022/06/24 02:33:41;;;;;;;3.42;2.00;;;;;;;29.49;40.60;100279.97;5025824;28;20172;-77
2022/06/24 02:36:08;;;;;;;3.88;2.15;;;;;;;29.48;40.77;100275.50;5027624;28;20084;-77
2022/06/24 02:38:34;;;;;;;4.97;2.30;;;;;;;29.46;40.99;100286.94;5028171;28;20077;-77
2022/06/24 02:41:04;;;;;;;3.53;1.90;;;;;;;29.45;40.79;100290.81;5031474;28;20128;-77
2022/06/24 02:43:36;;;;;;;4.32;1.90;;;;;;;29.47;42.02;100287.78;5031112;28;20111;-78
2022/06/24 02:46:07;;;;;;;4.90;2.17;;;;;;;29.41;41.29;100274.72;5029277;28;20128;-78
2022/06/24 02:48:35;;;;;;;4.15;2.30;;;;;;;29.39;41.30;100265.75;5029447;28;20051;-77
2022/06/24 02:51:05;;;;;;;4.35;2.30;;;;;;;29.40;40.92;100262.69;5029819;28;20077;-77
2022/06/24 02:53:32;;;;;;;3.80;1.83;;;;;;;29.37;41.04;100254.81;5027335;28;20051;-77
2022/06/24 02:56:10;;;;;;;3.55;1.92;;;;;;;29.39;41.81;100254.56;5049741;28;20091;-77
2022/06/24 02:58:38;;;;;;;4.82;2.28;;;;;;;29.33;41.57;100236.75;5035282;28;20050;-76
2022/06/24 03:01:06;;;;;;;4.25;2.38;;;;;;;29.32;41.41;100239.81;5012936;28;20045;-77
2022/06/24 03:03:34;;;;;;;3.85;2.38;;;;;;;29.31;41.60;100229.72;5022987;28;20697;-77
2022/06/24 03:06:01;;;;;;;3.42;2.35;;;;;;;29.29;41.70;100234.69;5022407;28;20084;-77
2022/06/24 03:08:28;;;;;;;4.40;2.50;;;;;;;29.27;41.81;100236.84;5033490;28;20046;-77
2022/06/24 03:10:56;;;;;;;4.05;2.35;;;;;;;29.26;41.75;100244.41;5042220;28;20079;-77
2022/06/24 03:13:23;;;;;;;4.43;2.60;;;;;;;29.25;41.83;100253.00;5048132;28;20080;-77
2022/06/24 03:15:52;;;;;;;4.07;2.38;;;;;;;29.26;41.78;100272.34;5048982;28;20048;-77
2022/06/24 03:18:19;;;;;;;4.85;3.00;;;;;;;29.21;41.69;100276.97;5037695;28;20079;-77
2022/06/24 03:20:47;;;;;;;5.03;3.05;;;;;;;29.21;42.13;100265.78;5014289;28;20053;-77
2022/06/24 03:23:14;;;;;;;3.60;2.55;;;;;;;29.20;42.13;100247.31;5034108;28;20049;-77
2022/06/24 03:25:41;;;;;;;5.25;2.83;;;;;;;29.15;42.03;100257.25;5032557;28;20161;-77
2022/06/24 03:28:08;;;;;;;5.68;3.22;;;;;;;29.15;42.35;100265.63;5038922;28;20075;-77
2022/06/24 03:30:35;;;;;;;5.68;3.05;;;;;;;29.14;41.88;100269.53;5051528;28;20071;-77
2022/06/24 03:33:02;;;;;;;4.93;2.95;;;;;;;29.11;42.43;100257.97;5047710;28;20072;-77
2022/06/24 03:35:29;;;;;;;4.50;2.83;;;;;;;29.09;42.08;100263.78;5043078;28;20161;-76
2022/06/24 03:37:56;;;;;;;4.43;2.92;;;;;;;29.06;42.51;100261.50;5047750;28;20083;-77
2022/06/24 03:40:22;;;;;;;5.28;2.88;;;;;;;29.02;42.23;100249.06;5051177;28;20132;-77
2022/06/24 03:42:50;;;;;;;5.05;2.92;;;;;;;29.01;42.46;100246.50;5049431;28;20098;-76
2022/06/24 03:45:17;;;;;;;4.68;2.90;;;;;;;28.97;42.67;100243.34;5050027;28;20091;-76
2022/06/24 03:47:44;;;;;;;4.43;3.22;;;;;;;28.94;43.16;100241.00;5030792;28;20048;-78
2022/06/24 03:50:10;;;;;;;4.53;3.03;;;;;;;28.93;42.86;100233.72;5044686;28;20087;-76
2022/06/24 03:52:37;;;;;;;4.60;3.13;;;;;;;28.91;43.09;100235.06;5046470;28;20044;-79
2022/06/24 03:55:04;;;;;;;4.75;3.00;;;;;;;28.90;43.09;100241.75;5019623;28;20107;-78
2022/06/24 03:57:31;;;;;;;4.05;3.47;;;;;;;28.89;43.38;100242.81;5013161;28;20127;-77
2022/06/24 03:59:57;;;;;;;4.43;3.38;;;;;;;28.86;42.94;100238.56;5029352;28;20124;-77
2022/06/24 04:02:24;;;;;;;5.20;3.05;;;;;;;28.85;43.27;100242.44;5030535;28;20049;-77
2022/06/24 04:04:51;;;;;;;5.43;3.38;;;;;;;28.83;42.93;100241.81;5027930;28;20089;-77
2022/06/24 04:07:17;;;;;;;4.82;3.50;;;;;;;28.82;43.28;100236.47;5028278;28;20515;-77
2022/06/24 04:09:44;;;;;;;5.95;3.47;;;;;;;28.81;43.20;100243.16;5028087;28;20261;-77
2022/06/24 04:12:11;;;;;;;4.85;3.22;;;;;;;28.80;43.21;100255.41;5027880;28;20115;-77
2022/06/24 04:17:37;;;;;;;5.07;3.60;;;;;;;28.74;43.38;100254.41;4989234;28;20065;-77
2022/06/24 04:20:04;;;;;;;5.35;3.38;;;;;;;28.75;43.77;100256.06;5030744;28;20049;-77
2022/06/24 04:22:31;;;;;;;6.22;3.58;;;;;;;28.73;43.60;100256.34;5029574;28;20136;-77
2022/06/24 04:24:58;;;;;;;6.00;3.67;;;;;;;28.71;43.54;100246.47;5046632;28;20061;-77
2022/06/24 04:27:25;;;;;;;5.45;3.45;;;;;;;28.69;43.62;100248.66;5046984;28;20049;-77
2022/06/24 04:29:57;;;;;;;5.78;3.75;;;;;;;28.68;43.92;100244.13;5012881;28;20115;-77
2022/06/24 04:32:23;;;;;;;5.28;3.80;;;;;;;28.65;44.04;100242.69;5028440;28;20496;-77
2022/06/24 04:34:50;;;;;;;4.70;3.40;;;;;;;28.66;43.92;100232.38;5031267;28;20041;-77
2022/06/24 04:37:16;;;;;;;5.22;3.60;;;;;;;28.65;43.95;100228.72;5033828;28;20068;-77
2022/06/24 04:39:44;;;;;;;5.32;3.50;;;;;;;28.64;44.29;100228.97;5033462;28;20129;-77
2022/06/24 04:42:11;;;;;;;4.93;3.63;;;;;;;28.64;44.20;100232.59;5021250;28;20087;-78
2022/06/24 04:44:38;;;;;;;5.13;3.95;;;;;;;28.63;43.74;100232.84;5012289;28;20574;-78
2022/06/24 04:47:10;;;;;;;4.80;3.60;;;;;;;28.60;44.03;100231.34;5035231;28;20103;-78
2022/06/24 04:49:37;;;;;;;4.88;3.60;;;;;;;28.60;43.88;100233.28;5027435;28;20157;-77
2022/06/24 04:52:05;;;;;;;4.47;3.50;;;;;;;28.61;43.90;100251.75;5029593;28;20054;-77
2022/06/24 04:54:32;;;;;;;4.97;3.33;;;;;;;28.59;43.93;100248.34;5020734;28;20099;-76
2022/06/24 04:56:59;;;;;;;4.50;3.55;;;;;;;28.56;44.04;100243.25;5028507;28;20099;-78
2022/06/24 04:59:26;;;;;;;4.57;3.40;;;;;;;28.56;44.13;100248.84;5042980;28;20453;-78
2022/06/24 05:01:54;;;;;;;5.53;3.65;;;;;;;28.53;44.11;100241.75;5051883;28;20483;-76
2022/06/24 05:04:21;;;;;;;5.38;3.70;;;;;;;28.52;44.13;100253.16;5055408;28;20143;-77
2022/06/24 05:06:49;;;;;;;4.63;3.38;;;;;;;28.50;44.40;100250.59;5048094;28;20045;-77
2022/06/24 05:09:17;;;;;;;5.38;3.88;;;;;;;28.51;44.35;100255.09;5046214;28;20041;-77
2022/06/24 05:11:44;;;;;;;6.13;3.72;;;;;;;28.49;43.99;100262.03;5051676;28;20444;-77
2022/06/24 05:14:10;;;;;;;6.32;4.05;;;;;;;28.48;44.62;100257.53;5051512;28;20080;-77
2022/06/24 05:16:37;;;;;;;5.38;3.80;;;;;;;28.47;44.30;100262.25;5053458;28;20107;-77
2022/06/24 05:19:05;;;;;;;5.15;3.55;;;;;;;28.46;44.37;100266.13;5052714;28;20037;-77
2022/06/24 05:21:32;;;;;;;5.63;3.75;;;;;;;28.46;44.44;100276.44;5035094;28;20088;-76
2022/06/24 05:23:59;;;;;;;5.20;3.92;;;;;;;28.45;44.41;100269.16;5050914;28;20045;-77
2022/06/24 05:26:26;;;;;;;5.57;4.15;;;;;;;28.43;44.25;100268.53;5050061;28;20046;-77
2022/06/24 05:28:52;;;;;;;6.03;3.30;;;;;;;28.42;43.84;100264.03;5044859;28;20045;-77
2022/06/24 05:31:19;;;;;;;5.18;3.70;;;;;;;28.41;44.39;100266.00;5053771;28;20077;-77
2022/06/24 05:33:46;;;;;;;4.30;3.42;;;;;;;28.38;44.50;100270.09;5049979;28;20052;-77
2022/06/24 05:36:12;;;;;;;4.55;3.20;;;;;;;28.37;44.22;100270.31;5048131;28;20072;-77
2022/06/24 05:38:39;;;;;;;5.05;3.70;;;;;;;28.37;44.12;100264.75;5053152;28;20090;-78
2022/06/24 05:41:11;;;;;;;4.60;3.05;;;;;;;28.34;44.55;100265.19;5051099;28;20128;-78
2022/06/24 05:43:37;;;;;;;4.85;3.25;;;;;;;28.35;44.41;100267.75;5040850;28;20045;-78
2022/06/24 05:46:04;;;;;;;4.40;2.90;;;;;;;28.34;44.62;100271.63;5049285;28;20048;-78
2022/06/24 05:48:31;;;;;;;4.32;3.00;;;;;;;28.34;44.42;100265.19;5052683;28;20053;-77
2022/06/24 05:50:58;;;;;;;5.97;3.08;;;;;;;28.33;44.07;100267.13;5040310;28;20056;-77
2022/06/24 05:56:09;;;;;;;4.22;3.30;;;;;;;28.31;44.77;100251.72;5054340;28;20091;-78
2022/06/24 05:58:36;;;;;;;5.05;3.20;;;;;;;28.31;44.29;100249.78;5034142;28;20052;-77
2022/06/24 06:01:10;;;;;;;5.18;3.30;;;;;;;28.33;44.44;100250.38;5049123;28;20041;-77
2022/06/24 06:03:37;;;;;;;4.78;3.10;;;;;;;28.28;44.25;100247.44;5031935;28;20883;-78
2022/06/24 06:06:06;;;;;;;6.05;3.40;;;;;;;28.30;44.57;100238.84;5046119;28;20064;-78
2022/06/24 06:08:39;;;;;;;5.55;3.35;;;;;;;28.30;45.22;100238.84;5051916;28;20372;-78
2022/06/24 06:11:15;;;;;;;4.80;3.50;;;;;;;28.29;44.88;100237.13;5043640;28;20092;-78
2022/06/24 06:13:42;;;;;;;5.13;3.17;;;;;;;28.25;44.75;100233.13;5030336;28;20515;-78
2022/06/24 06:16:09;;;;;;;4.53;3.20;;;;;;;28.24;44.80;100234.19;5050297;28;20127;-78
2022/06/24 06:18:37;;;;;;;5.07;3.63;;;;;;;28.24;44.85;100232.25;5042288;28;20503;-78
2022/06/24 06:21:05;;;;;;;5.53;3.63;;;;;;;28.25;44.56;100233.94;5048805;28;20466;-78
2022/06/24 06:23:32;;;;;;;5.40;3.97;;;;;;;28.23;44.48;100230.56;5038873;28;20048;-78
2022/06/24 06:26:01;;;;;;;4.97;3.65;;;;;;;28.24;44.61;100226.69;5045683;28;20049;-78
2022/06/24 06:28:27;;;;;;;6.75;3.40;;;;;;;28.21;44.21;100223.47;5050242;28;20059;-77
2022/06/24 06:30:54;;;;;;;5.35;3.70;;;;;;;28.21;44.25;100229.91;5048493;28;20087;-78
2022/06/24 06:33:20;;;;;;;6.00;3.75;;;;;;;28.21;44.45;100221.53;5021220;28;20084;-79
2022/06/24 06:35:47;;;;;;;5.30;3.70;;;;;;;28.21;44.42;100217.91;5028849;28;20044;-79
2022/06/24 06:38:15;;;;;;;5.68;2.92;;;;;;;28.21;44.42;100224.34;5029215;28;20065;-79
2022/06/24 06:40:42;;;;;;;5.28;3.35;;;;;;;28.21;44.46;100224.34;5028806;28;20079;-78
2022/06/24 06:43:09;;;;;;;4.90;3.22;;;;;;;28.21;44.72;100218.75;5035716;28;20064;-78
2022/06/24 06:45:37;;;;;;;5.03;3.05;;;;;;;28.25;44.12;100216.38;5048902;28;20037;-79
2022/06/24 06:48:05;;;;;;;5.57;3.55;;;;;;;28.22;44.57;100219.59;5041065;28;20553;-79
2022/06/24 06:50:31;;;;;;;3.80;2.90;;;;;;;28.22;44.37;100214.03;5027054;28;20488;-81
2022/06/24 06:52:59;;;;;;;5.10;3.20;;;;;;;28.22;44.67;100219.59;5008325;28;20135;-80
2022/06/24 06:55:25;;;;;;;6.05;3.33;;;;;;;28.22;44.74;100230.78;5028726;28;20055;-80
2022/06/24 06:57:52;;;;;;;4.82;3.17;;;;;;;28.23;44.13;100222.19;5033438;28;20049;-80
2022/06/24 07:00:19;;;;;;;5.53;3.58;;;;;;;28.23;43.85;100227.75;5044504;28;20090;-81
2022/06/24 07:02:46;;;;;;;6.00;3.88;;;;;;;28.22;44.48;100230.78;5022967;28;20045;-81
2022/06/24 07:05:13;;;;;;;7.03;3.72;;;;;;;28.23;44.32;100233.34;5012637;28;20053;-81
2022/06/24 07:07:40;;;;;;;5.60;3.60;;;;;;;28.22;44.39;100228.84;5020497;28;20045;-80
2022/06/24 07:10:06;;;;;;;6.28;4.05;;;;;;;28.23;44.49;100232.50;5023531;28;20042;-81
2022/06/24 07:12:33;;;;;;;6.03;4.30;;;;;;;28.23;44.09;100240.88;5023171;28;20066;-81
2022/06/24 07:15:00;;;;;;;7.38;4.75;;;;;;;28.22;44.39;100242.81;5022478;28;20482;-81
2022/06/24 07:17:32;;;;;;;6.45;4.35;;;;;;;28.27;44.61;100251.31;5020344;28;20045;-79
2022/06/24 07:20:03;;;;;;;6.95;4.43;;;;;;;28.24;44.59;100245.38;5029017;28;20132;-80
2022/06/24 07:22:30;;;;;;;6.30;4.10;;;;;;;28.22;44.07;100253.13;5031044;28;20443;-79
2022/06/24 07:24:57;;;;;;;5.82;3.65;;;;;;;28.22;43.95;100253.13;5047822;28;20467;-79
2022/06/24 07:27:23;;;;;;;5.05;3.08;;;;;;;28.20;43.40;100264.50;5046301;28;20045;-79
2022/06/24 07:29:50;;;;;;;4.63;2.58;;;;;;;28.19;43.86;100273.09;5029550;28;20114;-78
2022/06/24 07:32:17;;;;;;;4.22;2.60;;;;;;;28.17;43.81;100273.34;5017893;28;20094;-86
2022/06/24 07:34:43;;;;;;;5.10;2.38;;;;;;;28.16;44.06;100271.66;5051808;28;20156;-84
2022/06/24 07:37:10;;;;;;;3.55;1.95;;;;;;;28.13;44.54;100269.28;5034135;28;20049;-78
2022/06/24 07:39:41;;;;;;;4.43;2.00;;;;;;;28.09;44.63;100251.28;5036848;28;20179;-79
2022/06/24 07:42:08;;;;;;;3.58;1.90;;;;;;;28.05;44.22;100251.97;5066201;28;20099;-80
2022/06/24 07:44:35;;;;;;;5.53;2.10;;;;;;;28.00;44.32;100264.66;5050695;28;20056;-84
2022/06/24 07:47:01;;;;;;;4.13;1.88;;;;;;;27.95;44.06;100269.25;5042230;28;20159;-83
2022/06/24 07:49:28;;;;;;;3.47;2.00;;;;;;;27.90;43.33;100277.47;5033701;28;20052;-83
2022/06/24 07:51:55;;;;;;;4.35;2.10;;;;;;;27.84;43.94;100276.44;5050684;28;20069;-79
2022/06/24 07:54:24;;;;;;;4.88;2.45;;;;;;;27.78;44.49;100284.88;5050461;28;20049;-79
2022/06/24 07:56:56;;;;;;;4.95;1.85;;;;;;;27.69;43.85;100281.50;5032973;28;20053;-82
2022/06/24 07:59:25;;;;;;;3.22;1.70;;;;;;;27.57;44.56;100274.97;5043656;28;20054;-82
2022/06/24 08:01:54;;;;;;;3.10;1.70;;;;;;;27.45;44.99;100273.97;5044667;28;20052;-80
2022/06/24 08:04:22;;;;;;;3.55;1.85;;;;;;;27.34;45.61;100266.34;5041888;28;20049;-80
2022/06/24 08:06:50;;;;;;;3.53;1.75;;;;;;;27.22;45.37;100260.63;5047373;28;20044;-79
2022/06/24 08:09:17;;;;;;;3.53;2.15;;;;;;;27.14;46.09;100270.13;5053357;28;20041;-78
2022/06/24 08:11:44;;;;;;;3.85;2.03;;;;;;;27.06;46.45;100267.59;5036368;28;20435;-80
2022/06/24 08:14:13;;;;;;;4.47;2.13;;;;;;;27.00;46.34;100279.66;5052491;28;20048;-79
2022/06/24 08:16:40;;;;;;;4.65;2.40;;;;;;;26.95;46.89;100282.22;5060097;28;20044;-80
2022/06/24 08:19:13;;;;;;;4.20;2.60;;;;;;;26.87;47.20;100280.53;5037429;28;20060;-80
2022/06/24 08:21:40;;;;;;;4.30;2.45;;;;;;;26.83;47.22;100282.06;5024332;28;20111;-79
2022/06/24 08:24:07;;;;;;;4.72;2.75;;;;;;;26.80;47.15;100284.41;5030822;28;20237;-79
2022/06/24 08:26:34;;;;;;;4.25;2.40;;;;;;;26.76;47.77;100284.03;5036195;28;20087;-79
2022/06/24 08:29:01;;;;;;;3.97;2.55;;;;;;;26.73;47.76;100286.38;5033938;28;20659;-79
2022/06/24 08:31:27;;;;;;;4.35;2.67;;;;;;;26.70;48.07;100292.38;5034511;28;20510;-79
2022/06/24 08:33:54;;;;;;;7.03;3.10;;;;;;;26.66;48.16;100282.78;5020124;28;20103;-79
2022/06/24 08:36:25;;;;;;;4.25;2.72;;;;;;;26.63;48.13;100288.78;5010912;28;20118;-79
2022/06/24 08:38:54;;;;;;;4.20;2.90;;;;;;;26.59;47.85;100284.75;5036554;28;20053;-79
2022/06/24 08:41:23;;;;;;;4.88;3.13;;;;;;;26.58;48.27;100292.25;5049076;28;20179;-78
2022/06/24 08:43:55;;;;;;;4.95;2.97;;;;;;;26.58;48.76;100285.81;5035267;28;20081;-78
2022/06/24 08:46:22;;;;;;;4.90;2.88;;;;;;;26.50;48.54;100287.78;5017258;28;20053;-78
2022/06/24 08:48:49;;;;;;;5.70;3.33;;;;;;;26.51;48.46;100288.63;5037574;28;20049;-78
2022/06/24 08:51:16;;;;;;;6.22;3.15;;;;;;;26.49;48.89;100288.00;5053876;28;20474;-78
2022/06/24 08:53:45;;;;;;;5.22;2.90;;;;;;;26.51;48.59;100297.00;5040943;28;20088;-77
2022/06/24 08:56:15;;;;;;;;;;;;;;;26.20;49.48;100294.03;5030744;28;20050;-76
2022/06/24 08:58:42;;;;;;;5.18;2.78;;;;;;;26.41;48.87;100291.03;5045578;28;19959;-76
2022/06/24 09:01:15;;;;;;;3.75;2.85;;;;;;;26.45;49.42;100297.84;5052265;28;20076;-76
2022/06/24 09:03:44;;;;;;;5.20;3.20;;;;;;;26.41;48.61;100297.44;5023765;28;20051;-76
2022/06/24 09:06:15;;;;;;;5.32;3.28;;;;;;;26.44;50.02;100301.69;5054932;28;20119;-76
2022/06/24 09:08:47;;;;;;;4.82;3.30;;;;;;;26.42;49.15;100298.31;5023859;28;20128;-76
2022/06/24 09:11:14;;;;;;;4.68;3.00;;;;;;;26.39;48.90;100298.72;5016155;28;20045;-76
2022/06/24 09:13:42;;;;;;;6.10;3.15;;;;;;;26.38;49.16;100299.78;5029766;28;20076;-75
2022/06/24 09:16:11;;;;;;;5.40;3.58;;;;;;;26.39;49.33;100313.50;5030055;28;20111;-76
2022/06/24 09:18:39;;;;;;;5.15;3.85;;;;;;;26.37;49.45;100309.22;5027983;28;20056;-76
2022/06/24 09:21:06;;;;;;;5.07;3.33;;;;;;;26.38;49.49;100313.72;5038562;28;20084;-75
2022/06/24 09:23:49;;;;;;;5.13;3.65;;;;;;;26.37;49.54;100312.84;5011657;28;20064;-75
2022/06/24 09:26:27;;;;;;;4.50;3.45;;;;;;;26.41;49.36;100313.28;5032719;28;20080;-76
2022/06/24 09:28:57;;;;;;;5.53;3.55;;;;;;;26.39;49.49;100312.66;5032128;28;20057;-74
2022/06/24 09:31:25;;;;;;;5.30;3.30;;;;;;;26.41;49.48;100302.16;5025228;28;20057;-75
2022/06/24 09:33:53;;;;;;;5.10;3.28;;;;;;;26.41;49.29;100302.16;5023704;28;20681;-77
2022/06/24 09:36:25;;;;;;;5.07;3.13;;;;;;;26.46;49.63;100307.91;5038253;28;20495;-78
2022/06/24 09:39:03;;;;;;;4.22;2.90;;;;;;;26.45;49.48;100307.06;5032401;28;20048;-78
2022/06/24 09:41:30;;;;;;;4.03;3.00;;;;;;;26.43;49.13;100312.00;5013184;28;20037;-77
2022/06/24 09:43:58;;;;;;;4.15;2.80;;;;;;;26.47;49.84;100298.50;5017658;28;20500;-79
2022/06/24 09:46:26;;;;;;;4.78;3.35;;;;;;;26.47;49.31;100299.34;5029958;28;20435;-76
2022/06/24 09:49:07;;;;;;;5.35;3.28;;;;;;;26.52;49.98;100298.66;5028902;28;20076;-80
2022/06/24 09:51:34;;;;;;;5.18;3.58;;;;;;;26.50;49.97;100298.06;5050704;28;20045;-78
2022/06/24 09:54:01;;;;;;;5.60;4.28;;;;;;;26.53;49.68;100294.81;5052225;28;20049;-78
2022/06/24 09:56:29;;;;;;;6.32;4.03;;;;;;;26.53;49.47;100287.31;5054616;28;20113;-78
2022/06/24 10:01:44;;;;;;;4.85;3.35;;;;;;;26.63;49.87;100294.34;5053344;28;21125;-77
2022/06/24 10:04:14;;;;;;;5.53;3.42;;;;;;;26.69;50.12;100285.97;5040806;28;20057;-79
2022/06/24 10:06:47;;;;;;;6.20;2.92;;;;;;;26.75;50.20;100282.31;5052559;28;20503;-78
2022/06/24 10:09:29;;;;;;;4.50;3.35;;;;;;;26.82;49.93;100288.69;5046893;28;20068;-80
2022/06/24 10:12:00;;;;;;;4.47;2.60;;;;;;;26.91;50.47;100285.69;5048210;28;20037;-80
2022/06/24 10:14:30;;;;;;;4.60;3.17;;;;;;;26.99;49.84;100288.22;5043685;28;20050;-80
2022/06/24 10:16:58;;;;;;;5.20;3.30;;;;;;;27.06;49.67;100281.53;5045234;28;20045;-80
2022/06/24 10:19:26;;;;;;;3.97;2.78;;;;;;;27.16;48.97;100284.69;5045550;28;20072;-80
2022/06/24 10:21:53;;;;;;;4.15;3.00;;;;;;;27.26;49.06;100278.63;5040438;28;20488;-79
2022/06/24 10:24:20;;;;;;;4.07;2.75;;;;;;;27.36;49.44;100286.47;5056135;28;20126;-82
2022/06/24 10:26:52;;;;;;;3.95;2.80;;;;;;;27.47;48.61;100288.53;5050904;28;20116;-81
2022/06/24 10:29:27;;;;;;;4.38;2.92;;;;;;;27.54;48.72;100298.59;5038596;28;20049;-79
2022/06/24 10:31:58;;;;;;;4.40;3.15;;;;;;;27.67;47.87;100294.00;5033012;28;20476;-79
2022/06/24 10:34:28;;;;;;;3.63;2.83;;;;;;;27.76;47.85;100284.22;5048807;28;20087;-78
2022/06/24 10:37:01;;;;;;;3.95;2.60;;;;;;;27.88;48.01;100291.63;5034321;28;20064;-78
2022/06/24 10:39:32;;;;;;;4.45;3.00;;;;;;;27.97;48.01;100301.44;5029546;28;20091;-79
2022/06/24 10:41:59;;;;;;;3.33;2.53;;;;;;;28.04;47.80;100293.00;5048068;28;20128;-79
2022/06/24 10:45:22;;;;;;;4.10;2.70;;;;;;;28.14;47.10;100292.47;5026619;28;20136;-79
2022/06/24 10:47:54;;;;;;;4.55;2.60;;;;;;;28.29;47.21;100291.03;4970301;28;20057;-79
2022/06/24 10:50:21;;;;;;;4.00;2.70;;;;;;;28.43;46.97;100297.31;5027988;28;20081;-79
2022/06/24 10:52:51;;;;;;;4.18;2.47;;;;;;;28.52;45.88;100289.47;5026998;28;20052;-79
2022/06/24 10:55:18;;;;;;;3.10;2.30;;;;;;;28.62;45.59;100304.59;5035921;28;20140;-81
2022/06/24 10:57:48;;;;;;;3.90;2.40;;;;;;;28.71;45.93;100307.94;5002453;28;20045;-80
2022/06/24 11:00:19;;;;;;;3.72;2.40;;;;;;;28.75;44.98;100300.78;5044800;28;20527;-80
2022/06/24 11:02:51;;;;;;;3.47;2.40;;;;;;;28.81;44.33;100299.91;5046866;28;20490;-79
2022/06/24 11:05:23;;;;;;;2.80;2.17;;;;;;;28.84;43.95;100305.00;5051066;28;20045;-79
2022/06/24 11:07:50;;;;;;;2.92;2.00;;;;;;;28.86;43.89;100302.81;5052566;28;20049;-80
2022/06/24 11:10:19;;;;;;;3.00;2.20;;;;;;;28.88;43.57;100292.28;5030434;28;20049;-80
2022/06/24 11:12:50;;;;;;;4.30;2.70;;;;;;;28.92;44.21;100289.84;5048525;28;20057;-81
2022/06/24 11:15:16;;;;;;;4.15;2.50;;;;;;;28.89;44.03;100305.16;5030128;28;20114;-81
2022/06/24 11:17:43;;;;;;;3.20;2.40;;;;;;;28.89;44.13;100309.91;5048892;28;20064;-82
2022/06/24 11:20:11;;;;;;;4.55;2.80;;;;;;;28.86;44.58;100314.00;5042475;28;20048;-80
2022/06/24 11:22:46;;;;;;;3.65;2.60;;;;;;;28.86;44.93;100308.41;5046394;28;20049;-80
2022/06/24 11:25:14;;;;;;;3.72;2.58;;;;;;;28.81;44.85;100296.25;5043633;28;20087;-80
2022/06/24 11:27:41;;;;;;;3.67;2.67;;;;;;;28.76;45.01;100297.78;5044417;28;20098;-80
2022/06/24 11:30:09;;;;;;;4.40;2.70;;;;;;;28.75;44.92;100304.44;5048945;28;20567;-80
2022/06/24 11:32:52;;;;;;;4.95;2.50;;;;;;;28.74;45.51;100308.31;5048028;28;20052;-80
2022/06/24 11:35:20;;;;;;;3.88;2.63;;;;;;;28.69;45.15;100304.53;5047289;28;20049;-80
2022/06/24 11:37:47;;;;;;;4.07;2.50;;;;;;;28.68;45.27;100298.09;5028873;28;20052;-80
2022/06/24 11:40:22;;;;;;;3.65;2.75;;;;;;;28.71;45.30;100297.63;5046409;28;20495;-80
2022/06/24 11:42:49;;;;;;;4.60;2.60;;;;;;;28.70;45.77;100286.69;5046521;28;20041;-80